sensor_id;sensor_type;location;lat;lon;timestamp;pressure;altitude;pressure_sealevel;temperature;humidity
26657;BME280;14279;50.010;8.260;2023-05-02T00:01:34;100567.75;;;15.19;56.90
26657;BME280;14279;50.010;8.260;2023-05-02T00:04:00;100557.41;;;15.30;56.06
26657;BME280;14279;50.010;8.260;2023-05-02T00:06:25;100556.41;;;15.18;55.77
26657;BME280;14279;50.010;8.260;2023-05-02T00:08:51;100556.06;;;15.10;55.70
26657;BME280;14279;50.010;8.260;2023-05-02T00:11:16;100556.16;;;15.09;55.91
26657;BME280;14279;50.010;8.260;2023-05-02T00:13:42;100547.53;;;15.07;56.18
26657;BME280;14279;50.010;8.260;2023-05-02T00:16:08;100546.69;;;15.06;56.41
26657;BME280;14279;50.010;8.260;2023-05-02T00:18:33;100541.28;;;15.09;56.68
26657;BME280;14279;50.010;8.260;2023-05-02T00:20:59;100551.75;;;15.09;56.21
26657;BME280;14279;50.010;8.260;2023-05-02T00:23:24;100554.19;;;14.98;56.66
26657;BME280;14279;50.010;8.260;2023-05-02T00:25:49;100556.34;;;15.06;56.58
26657;BME280;14279;50.010;8.260;2023-05-02T00:28:14;100553.19;;;15.00;57.23
26657;BME280;14279;50.010;8.260;2023-05-02T00:30:46;100560.56;;;14.79;57.38
26657;BME280;14279;50.010;8.260;2023-05-02T00:33:11;100560.66;;;14.92;57.35
26657;BME280;14279;50.010;8.260;2023-05-02T00:35:38;100555.59;;;14.89;57.02
26657;BME280;14279;50.010;8.260;2023-05-02T00:38:03;100552.75;;;14.63;58.03
26657;BME280;14279;50.010;8.260;2023-05-02T00:40:28;100565.66;;;14.66;58.17
26657;BME280;14279;50.010;8.260;2023-05-02T00:42:54;100559.94;;;14.45;58.57
26657;BME280;14279;50.010;8.260;2023-05-02T00:45:19;100561.25;;;14.52;58.51
26657;BME280;14279;50.010;8.260;2023-05-02T00:47:44;100562.19;;;14.37;59.41
26657;BME280;14279;50.010;8.260;2023-05-02T00:50:10;100562.53;;;14.45;59.24
26657;BME280;14279;50.010;8.260;2023-05-02T00:52:36;100564.16;;;14.48;58.89
26657;BME280;14279;50.010;8.260;2023-05-02T00:55:02;100567.59;;;14.48;59.27
26657;BME280;14279;50.010;8.260;2023-05-02T00:57:28;100569.97;;;14.53;59.14
26657;BME280;14279;50.010;8.260;2023-05-02T00:59:53;100570.72;;;14.55;58.95
26657;BME280;14279;50.010;8.260;2023-05-02T01:02:31;100574.22;;;14.39;59.22
26657;BME280;14279;50.010;8.260;2023-05-02T01:08:02;100570.72;;;14.55;59.07
26657;BME280;14279;50.010;8.260;2023-05-02T01:10:52;100576.59;;;14.44;59.53
26657;BME280;14279;50.010;8.260;2023-05-02T01:13:25;100576.50;;;14.46;59.80
26657;BME280;14279;50.010;8.260;2023-05-02T01:15:55;100575.00;;;14.41;59.89
26657;BME280;14279;50.010;8.260;2023-05-02T01:18:23;100581.66;;;14.17;60.41
26657;BME280;14279;50.010;8.260;2023-05-02T01:21:01;100586.75;;;14.34;60.30
26657;BME280;14279;50.010;8.260;2023-05-02T01:23:34;100582.78;;;14.43;59.99
26657;BME280;14279;50.010;8.260;2023-05-02T01:26:14;100586.69;;;14.36;60.37
26657;BME280;14279;50.010;8.260;2023-05-02T01:29:01;100584.53;;;14.42;60.19
26657;BME280;14279;50.010;8.260;2023-05-02T01:31:34;100597.56;;;14.44;60.32
26657;BME280;14279;50.010;8.260;2023-05-02T01:34:01;100600.25;;;14.42;60.81
26657;BME280;14279;50.010;8.260;2023-05-02T01:36:29;100595.41;;;14.51;60.58
26657;BME280;14279;50.010;8.260;2023-05-02T01:38:56;100592.41;;;14.57;60.68
26657;BME280;14279;50.010;8.260;2023-05-02T01:41:25;100596.16;;;14.53;60.51
26657;BME280;14279;50.010;8.260;2023-05-02T01:43:51;100595.13;;;14.55;60.35
26657;BME280;14279;50.010;8.260;2023-05-02T01:46:19;100595.13;;;14.41;61.07
26657;BME280;14279;50.010;8.260;2023-05-02T01:48:46;100604.19;;;14.50;60.73
26657;BME280;14279;50.010;8.260;2023-05-02T01:51:14;100600.53;;;14.38;61.25
26657;BME280;14279;50.010;8.260;2023-05-02T01:53:42;100609.59;;;14.32;61.37
26657;BME280;14279;50.010;8.260;2023-05-02T01:56:08;100615.13;;;14.42;61.20
26657;BME280;14279;50.010;8.260;2023-05-02T01:58:34;100608.88;;;14.14;62.34
26657;BME280;14279;50.010;8.260;2023-05-02T02:01:01;100608.94;;;14.12;63.04
26657;BME280;14279;50.010;8.260;2023-05-02T02:03:29;100603.63;;;14.14;63.48
26657;BME280;14279;50.010;8.260;2023-05-02T02:05:57;100606.16;;;14.16;63.67
26657;BME280;14279;50.010;8.260;2023-05-02T02:08:23;100614.47;;;13.92;64.74
26657;BME280;14279;50.010;8.260;2023-05-02T02:10:53;100622.72;;;14.16;64.14
26657;BME280;14279;50.010;8.260;2023-05-02T02:13:26;100626.19;;;13.85;65.38
26657;BME280;14279;50.010;8.260;2023-05-02T02:15:58;100625.84;;;13.91;65.40
26657;BME280;14279;50.010;8.260;2023-05-02T02:18:25;100629.22;;;14.09;64.85
26657;BME280;14279;50.010;8.260;2023-05-02T02:20:52;100641.66;;;13.57;66.65
26657;BME280;14279;50.010;8.260;2023-05-02T02:23:20;100644.25;;;13.57;67.19
26657;BME280;14279;50.010;8.260;2023-05-02T02:25:48;100637.69;;;13.66;66.74
26657;BME280;14279;50.010;8.260;2023-05-02T02:28:14;100640.06;;;13.55;67.49
26657;BME280;14279;50.010;8.260;2023-05-02T02:30:40;100643.78;;;13.66;67.25
26657;BME280;14279;50.010;8.260;2023-05-02T02:33:05;100651.75;;;13.47;67.59
26657;BME280;14279;50.010;8.260;2023-05-02T02:35:35;100644.28;;;13.73;67.11
26657;BME280;14279;50.010;8.260;2023-05-02T02:38:13;100642.66;;;13.55;67.72
26657;BME280;14279;50.010;8.260;2023-05-02T02:43:50;100652.78;;;13.61;67.46
26657;BME280;14279;50.010;8.260;2023-05-02T02:49:26;100657.75;;;13.49;68.67
26657;BME280;14279;50.010;8.260;2023-05-02T02:52:09;100665.09;;;13.75;67.45
26657;BME280;14279;50.010;8.260;2023-05-02T02:54:47;100667.56;;;13.28;69.42
26657;BME280;14279;50.010;8.260;2023-05-02T03:00:01;100669.44;;;13.08;70.66
26657;BME280;14279;50.010;8.260;2023-05-02T03:02:31;100674.81;;;13.05;70.78
26657;BME280;14279;50.010;8.260;2023-05-02T03:04:57;100675.50;;;13.27;70.56
26657;BME280;14279;50.010;8.260;2023-05-02T03:07:23;100675.00;;;13.36;69.54
26657;BME280;14279;50.010;8.260;2023-05-02T03:09:51;100680.25;;;13.18;69.90
26657;BME280;14279;50.010;8.260;2023-05-02T03:12:16;100687.13;;;13.21;69.57
26657;BME280;14279;50.010;8.260;2023-05-02T03:14:41;100686.34;;;13.19;69.93
26657;BME280;14279;50.010;8.260;2023-05-02T03:17:07;100710.94;;;13.15;69.98
26657;BME280;14279;50.010;8.260;2023-05-02T03:19:33;100696.44;;;13.09;70.26
26657;BME280;14279;50.010;8.260;2023-05-02T03:21:58;100701.88;;;13.04;70.25
26657;BME280;14279;50.010;8.260;2023-05-02T03:24:24;100712.28;;;13.06;70.78
26657;BME280;14279;50.010;8.260;2023-05-02T03:26:56;100707.81;;;12.90;71.11
26657;BME280;14279;50.010;8.260;2023-05-02T03:29:23;100716.03;;;13.00;71.17
26657;BME280;14279;50.010;8.260;2023-05-02T03:31:48;100718.56;;;13.02;71.01
26657;BME280;14279;50.010;8.260;2023-05-02T03:34:13;100722.25;;;12.98;71.46
26657;BME280;14279;50.010;8.260;2023-05-02T03:36:39;100726.09;;;12.90;71.61
26657;BME280;14279;50.010;8.260;2023-05-02T03:39:04;100729.63;;;12.89;71.86
26657;BME280;14279;50.010;8.260;2023-05-02T03:41:30;100722.66;;;12.90;71.57
26657;BME280;14279;50.010;8.260;2023-05-02T03:43:55;100725.56;;;13.01;71.04
26657;BME280;14279;50.010;8.260;2023-05-02T03:46:21;100723.56;;;13.06;70.66
26657;BME280;14279;50.010;8.260;2023-05-02T03:48:46;100723.56;;;13.06;71.11
26657;BME280;14279;50.010;8.260;2023-05-02T03:51:11;100735.94;;;13.03;71.37
26657;BME280;14279;50.010;8.260;2023-05-02T03:53:36;100737.84;;;13.17;70.69
26657;BME280;14279;50.010;8.260;2023-05-02T03:56:02;100736.72;;;13.05;71.12
26657;BME280;14279;50.010;8.260;2023-05-02T03:58:27;100738.63;;;12.84;71.84
26657;BME280;14279;50.010;8.260;2023-05-02T04:00:53;100739.38;;;13.03;71.15
26657;BME280;14279;50.010;8.260;2023-05-02T04:03:19;100738.94;;;13.13;70.89
26657;BME280;14279;50.010;8.260;2023-05-02T04:05:44;100739.09;;;12.74;72.39
26657;BME280;14279;50.010;8.260;2023-05-02T04:08:10;100730.34;;;12.75;72.48
26657;BME280;14279;50.010;8.260;2023-05-02T04:10:35;100750.00;;;12.83;72.63
26657;BME280;14279;50.010;8.260;2023-05-02T04:13:00;100749.38;;;13.13;70.99
26657;BME280;14279;50.010;8.260;2023-05-02T04:15:27;100752.84;;;13.13;70.52
26657;BME280;14279;50.010;8.260;2023-05-02T04:17:52;100766.66;;;13.15;70.37
26657;BME280;14279;50.010;8.260;2023-05-02T04:20:18;100768.44;;;12.80;71.83
26657;BME280;14279;50.010;8.260;2023-05-02T04:22:43;100766.00;;;13.12;70.72
26657;BME280;14279;50.010;8.260;2023-05-02T04:25:08;100782.75;;;13.07;70.94
26657;BME280;14279;50.010;8.260;2023-05-02T04:27:33;100784.19;;;12.96;71.13
26657;BME280;14279;50.010;8.260;2023-05-02T04:29:58;100791.78;;;12.83;72.10
26657;BME280;14279;50.010;8.260;2023-05-02T04:32:24;100788.75;;;12.92;71.66
26657;BME280;14279;50.010;8.260;2023-05-02T04:34:49;100798.53;;;12.52;73.08
26657;BME280;14279;50.010;8.260;2023-05-02T04:37:15;100800.75;;;12.59;73.73
26657;BME280;14279;50.010;8.260;2023-05-02T04:39:40;100804.03;;;13.00;71.83
26657;BME280;14279;50.010;8.260;2023-05-02T04:42:05;100805.72;;;13.18;71.11
26657;BME280;14279;50.010;8.260;2023-05-02T04:44:31;100822.47;;;13.14;71.10
26657;BME280;14279;50.010;8.260;2023-05-02T04:46:56;100809.28;;;13.17;71.11
26657;BME280;14279;50.010;8.260;2023-05-02T04:49:21;100813.59;;;13.36;70.43
26657;BME280;14279;50.010;8.260;2023-05-02T04:51:46;100820.41;;;13.03;71.05
26657;BME280;14279;50.010;8.260;2023-05-02T04:54:12;100825.03;;;13.16;71.04
26657;BME280;14279;50.010;8.260;2023-05-02T04:56:37;100824.28;;;13.14;70.79
26657;BME280;14279;50.010;8.260;2023-05-02T04:59:02;100826.34;;;13.07;70.86
26657;BME280;14279;50.010;8.260;2023-05-02T05:01:28;100831.19;;;13.15;70.39
26657;BME280;14279;50.010;8.260;2023-05-02T05:03:53;100833.75;;;13.51;69.47
26657;BME280;14279;50.010;8.260;2023-05-02T05:06:19;100834.34;;;13.74;68.59
26657;BME280;14279;50.010;8.260;2023-05-02T05:08:44;100825.00;;;13.86;67.72
26657;BME280;14279;50.010;8.260;2023-05-02T05:11:10;100834.13;;;13.95;67.09
26657;BME280;14279;50.010;8.260;2023-05-02T05:13:36;100841.13;;;13.78;66.72
26657;BME280;14279;50.010;8.260;2023-05-02T05:16:01;100836.91;;;13.58;67.42
26657;BME280;14279;50.010;8.260;2023-05-02T05:18:27;100840.88;;;13.83;66.83
26657;BME280;14279;50.010;8.260;2023-05-02T05:20:52;100841.53;;;13.87;66.56
26657;BME280;14279;50.010;8.260;2023-05-02T05:23:17;100840.47;;;13.91;65.84
26657;BME280;14279;50.010;8.260;2023-05-02T05:25:42;100846.34;;;14.12;65.29
26657;BME280;14279;50.010;8.260;2023-05-02T05:28:08;100854.69;;;14.19;65.58
26657;BME280;14279;50.010;8.260;2023-05-02T05:30:33;100853.50;;;14.08;66.51
26657;BME280;14279;50.010;8.260;2023-05-02T05:32:58;100857.44;;;14.00;66.56
26657;BME280;14279;50.010;8.260;2023-05-02T05:35:24;100869.28;;;14.07;66.47
26657;BME280;14279;50.010;8.260;2023-05-02T05:37:49;100875.59;;;14.20;65.04
26657;BME280;14279;50.010;8.260;2023-05-02T05:40:15;100867.06;;;14.33;65.06
26657;BME280;14279;50.010;8.260;2023-05-02T05:42:41;100877.69;;;14.30;64.75
26657;BME280;14279;50.010;8.260;2023-05-02T05:45:07;100873.31;;;14.30;65.21
26657;BME280;14279;50.010;8.260;2023-05-02T05:47:33;100878.41;;;14.65;64.08
26657;BME280;14279;50.010;8.260;2023-05-02T05:49:58;100889.97;;;14.29;64.81
26657;BME280;14279;50.010;8.260;2023-05-02T05:52:24;100889.78;;;14.32;64.54
26657;BME280;14279;50.010;8.260;2023-05-02T05:54:52;100889.78;;;14.48;63.97
26657;BME280;14279;50.010;8.260;2023-05-02T05:57:18;100885.91;;;14.55;63.61
26657;BME280;14279;50.010;8.260;2023-05-02T05:59:43;100887.81;;;14.69;63.26
26657;BME280;14279;50.010;8.260;2023-05-02T06:02:08;100896.66;;;14.51;63.20
26657;BME280;14279;50.010;8.260;2023-05-02T06:04:33;100896.44;;;14.71;62.66
26657;BME280;14279;50.010;8.260;2023-05-02T06:06:58;100897.50;;;14.67;62.50
26657;BME280;14279;50.010;8.260;2023-05-02T06:09:24;100899.69;;;14.43;63.09
26657;BME280;14279;50.010;8.260;2023-05-02T06:11:50;100896.41;;;14.55;62.93
26657;BME280;14279;50.010;8.260;2023-05-02T06:14:15;100904.91;;;14.59;63.06
26657;BME280;14279;50.010;8.260;2023-05-02T06:16:40;100900.38;;;14.63;62.66
26657;BME280;14279;50.010;8.260;2023-05-02T06:19:06;100905.13;;;14.88;62.47
26657;BME280;14279;50.010;8.260;2023-05-02T06:21:34;100911.50;;;14.50;63.01
26657;BME280;14279;50.010;8.260;2023-05-02T06:24:00;100919.88;;;14.57;62.88
26657;BME280;14279;50.010;8.260;2023-05-02T06:26:25;100915.28;;;14.94;61.61
26657;BME280;14279;50.010;8.260;2023-05-02T06:28:50;100915.63;;;14.88;62.41
26657;BME280;14279;50.010;8.260;2023-05-02T06:31:16;100921.88;;;14.85;62.57
26657;BME280;14279;50.010;8.260;2023-05-02T06:33:41;100923.91;;;14.96;62.34
26657;BME280;14279;50.010;8.260;2023-05-02T06:36:07;100932.31;;;15.17;61.90
26657;BME280;14279;50.010;8.260;2023-05-02T06:38:32;100935.06;;;15.16;61.73
26657;BME280;14279;50.010;8.260;2023-05-02T06:40:57;100933.69;;;14.93;61.23
26657;BME280;14279;50.010;8.260;2023-05-02T06:43:23;100945.81;;;14.46;62.89
26657;BME280;14279;50.010;8.260;2023-05-02T06:45:51;100950.69;;;14.69;61.72
26657;BME280;14279;50.010;8.260;2023-05-02T06:48:17;100944.66;;;14.67;61.21
26657;BME280;14279;50.010;8.260;2023-05-02T06:50:42;100949.44;;;14.77;60.73
26657;BME280;14279;50.010;8.260;2023-05-02T06:53:07;100953.25;;;15.03;59.58
26657;BME280;14279;50.010;8.260;2023-05-02T06:55:32;100950.78;;;14.84;59.42
26657;BME280;14279;50.010;8.260;2023-05-02T06:57:58;100958.72;;;14.33;60.39
26657;BME280;14279;50.010;8.260;2023-05-02T07:00:23;100947.25;;;14.85;59.72
26657;BME280;14279;50.010;8.260;2023-05-02T07:02:48;100955.38;;;14.96;59.30
26657;BME280;14279;50.010;8.260;2023-05-02T07:05:15;100968.38;;;14.82;59.90
26657;BME280;14279;50.010;8.260;2023-05-02T07:07:41;100978.28;;;14.59;60.95
26657;BME280;14279;50.010;8.260;2023-05-02T07:10:07;100983.72;;;14.56;61.71
26657;BME280;14279;50.010;8.260;2023-05-02T07:12:32;100981.94;;;14.56;62.07
26657;BME280;14279;50.010;8.260;2023-05-02T07:14:57;100987.88;;;14.42;60.85
26657;BME280;14279;50.010;8.260;2023-05-02T07:17:22;100997.56;;;14.07;61.74
26657;BME280;14279;50.010;8.260;2023-05-02T07:19:49;100993.84;;;14.28;61.67
26657;BME280;14279;50.010;8.260;2023-05-02T07:22:15;100996.41;;;14.12;62.38
26657;BME280;14279;50.010;8.260;2023-05-02T07:24:40;100998.63;;;14.38;61.93
26657;BME280;14279;50.010;8.260;2023-05-02T07:27:10;101006.03;;;14.12;62.37
26657;BME280;14279;50.010;8.260;2023-05-02T07:29:35;101000.56;;;13.99;63.42
26657;BME280;14279;50.010;8.260;2023-05-02T07:32:01;100998.44;;;14.07;63.57
26657;BME280;14279;50.010;8.260;2023-05-02T07:34:26;101001.78;;;14.09;63.31
26657;BME280;14279;50.010;8.260;2023-05-02T07:36:52;101002.63;;;14.27;62.38
26657;BME280;14279;50.010;8.260;2023-05-02T07:39:17;101001.22;;;14.38;62.56
26657;BME280;14279;50.010;8.260;2023-05-02T07:41:43;101009.97;;;14.21;62.77
26657;BME280;14279;50.010;8.260;2023-05-02T07:44:08;101011.34;;;14.28;62.78
26657;BME280;14279;50.010;8.260;2023-05-02T07:46:33;101008.56;;;14.13;62.92
26657;BME280;14279;50.010;8.260;2023-05-02T07:48:58;101015.13;;;14.05;63.35
26657;BME280;14279;50.010;8.260;2023-05-02T07:51:24;101015.19;;;14.21;63.08
26657;BME280;14279;50.010;8.260;2023-05-02T07:53:50;101023.66;;;14.26;62.96
26657;BME280;14279;50.010;8.260;2023-05-02T07:56:22;101027.50;;;14.19;63.16
26657;BME280;14279;50.010;8.260;2023-05-02T07:58:47;101032.19;;;13.77;64.28
26657;BME280;14279;50.010;8.260;2023-05-02T08:01:13;101034.34;;;13.68;64.58
26657;BME280;14279;50.010;8.260;2023-05-02T08:03:38;101036.72;;;13.56;64.66
26657;BME280;14279;50.010;8.260;2023-05-02T08:06:04;101044.75;;;13.88;64.10
26657;BME280;14279;50.010;8.260;2023-05-02T08:08:29;101032.41;;;13.55;64.76
26657;BME280;14279;50.010;8.260;2023-05-02T08:10:54;101048.56;;;13.63;64.66
26657;BME280;14279;50.010;8.260;2023-05-02T08:13:20;101066.28;;;13.37;64.65
26657;BME280;14279;50.010;8.260;2023-05-02T08:15:45;101050.06;;;13.49;64.60
26657;BME280;14279;50.010;8.260;2023-05-02T08:18:10;101051.28;;;13.42;64.30
26657;BME280;14279;50.010;8.260;2023-05-02T08:20:35;101049.84;;;14.08;62.70
26657;BME280;14279;50.010;8.260;2023-05-02T08:23:01;101058.00;;;14.02;62.72
26657;BME280;14279;50.010;8.260;2023-05-02T08:25:26;101065.25;;;13.97;61.63
26657;BME280;14279;50.010;8.260;2023-05-02T08:27:51;101066.59;;;13.87;61.96
26657;BME280;14279;50.010;8.260;2023-05-02T08:30:17;101060.69;;;14.01;61.68
26657;BME280;14279;50.010;8.260;2023-05-02T08:32:44;101073.09;;;14.15;61.19
26657;BME280;14279;50.010;8.260;2023-05-02T08:35:09;101068.25;;;13.89;61.85
26657;BME280;14279;50.010;8.260;2023-05-02T08:37:35;101069.69;;;13.77;63.14
26657;BME280;14279;50.010;8.260;2023-05-02T08:40:01;101074.00;;;13.96;62.14
26657;BME280;14279;50.010;8.260;2023-05-02T08:42:27;101076.97;;;14.07;62.26
26657;BME280;14279;50.010;8.260;2023-05-02T08:44:53;101078.50;;;14.29;61.41
26657;BME280;14279;50.010;8.260;2023-05-02T08:47:18;101077.81;;;13.71;63.67
26657;BME280;14279;50.010;8.260;2023-05-02T08:49:45;101077.47;;;13.96;62.76
26657;BME280;14279;50.010;8.260;2023-05-02T08:52:11;101084.44;;;14.15;62.03
26657;BME280;14279;50.010;8.260;2023-05-02T08:54:37;101085.97;;;14.19;62.08
26657;BME280;14279;50.010;8.260;2023-05-02T08:57:04;101084.81;;;14.25;61.89
26657;BME280;14279;50.010;8.260;2023-05-02T08:59:29;101093.13;;;15.02;59.87
26657;BME280;14279;50.010;8.260;2023-05-02T09:02:00;101094.63;;;14.90;58.90
26657;BME280;14279;50.010;8.260;2023-05-02T09:04:30;101096.81;;;14.47;59.80
26657;BME280;14279;50.010;8.260;2023-05-02T09:07:00;101106.00;;;14.38;60.69
26657;BME280;14279;50.010;8.260;2023-05-02T09:09:25;101109.78;;;14.32;60.75
26657;BME280;14279;50.010;8.260;2023-05-02T09:11:51;101112.22;;;14.35;60.34
26657;BME280;14279;50.010;8.260;2023-05-02T09:14:16;101108.00;;;14.33;60.92
26657;BME280;14279;50.010;8.260;2023-05-02T09:16:42;101112.16;;;14.19;61.25
26657;BME280;14279;50.010;8.260;2023-05-02T09:19:07;101124.50;;;14.70;58.35
26657;BME280;14279;50.010;8.260;2023-05-02T09:21:37;101120.38;;;14.99;57.61
26657;BME280;14279;50.010;8.260;2023-05-02T09:24:14;101122.50;;;15.09;57.34
26657;BME280;14279;50.010;8.260;2023-05-02T09:26:41;101118.09;;;14.76;58.01
26657;BME280;14279;50.010;8.260;2023-05-02T09:29:06;101132.56;;;14.83;57.46
26657;BME280;14279;50.010;8.260;2023-05-02T09:31:33;101121.00;;;15.37;56.92
26657;BME280;14279;50.010;8.260;2023-05-02T09:34:11;101129.94;;;15.50;56.47
26657;BME280;14279;50.010;8.260;2023-05-02T09:36:40;101128.34;;;15.14;57.35
26657;BME280;14279;50.010;8.260;2023-05-02T09:39:14;101124.13;;;14.78;58.29
26657;BME280;14279;50.010;8.260;2023-05-02T09:41:46;101131.50;;;14.69;57.45
26657;BME280;14279;50.010;8.260;2023-05-02T09:44:17;101122.63;;;14.54;57.21
26657;BME280;14279;50.010;8.260;2023-05-02T09:46:50;101135.31;;;15.31;55.64
26657;BME280;14279;50.010;8.260;2023-05-02T09:49:16;101135.88;;;15.20;55.67
26657;BME280;14279;50.010;8.260;2023-05-02T09:51:46;101136.84;;;15.35;54.98
26657;BME280;14279;50.010;8.260;2023-05-02T09:54:12;101138.44;;;15.38;55.37
26657;BME280;14279;50.010;8.260;2023-05-02T09:56:54;101134.59;;;15.61;54.38
26657;BME280;14279;50.010;8.260;2023-05-02T09:59:21;101135.06;;;15.84;54.22
26657;BME280;14279;50.010;8.260;2023-05-02T10:01:54;101129.59;;;15.88;53.60
26657;BME280;14279;50.010;8.260;2023-05-02T10:04:19;101128.31;;;15.96;53.43
26657;BME280;14279;50.010;8.260;2023-05-02T10:06:46;101126.44;;;15.66;54.30
26657;BME280;14279;50.010;8.260;2023-05-02T10:09:14;101134.66;;;15.10;54.38
26657;BME280;14279;50.010;8.260;2023-05-02T10:11:41;101145.00;;;15.13;54.64
26657;BME280;14279;50.010;8.260;2023-05-02T10:14:10;101128.63;;;15.25;54.26
26657;BME280;14279;50.010;8.260;2023-05-02T10:16:46;101117.38;;;15.71;53.36
26657;BME280;14279;50.010;8.260;2023-05-02T10:19:19;101127.63;;;15.60;52.87
26657;BME280;14279;50.010;8.260;2023-05-02T10:21:48;101125.09;;;16.06;52.09
26657;BME280;14279;50.010;8.260;2023-05-02T10:24:14;101126.94;;;16.35;51.58
26657;BME280;14279;50.010;8.260;2023-05-02T10:26:39;101122.09;;;16.43;51.50
26657;BME280;14279;50.010;8.260;2023-05-02T10:29:05;101119.19;;;16.48;51.36
26657;BME280;14279;50.010;8.260;2023-05-02T10:31:34;101126.53;;;16.27;51.44
26657;BME280;14279;50.010;8.260;2023-05-02T10:34:02;101118.66;;;16.86;50.43
26657;BME280;14279;50.010;8.260;2023-05-02T10:36:27;101127.41;;;16.72;50.17
26657;BME280;14279;50.010;8.260;2023-05-02T10:38:53;101108.44;;;16.67;49.59
26657;BME280;14279;50.010;8.260;2023-05-02T10:41:21;101116.25;;;17.26;48.95
26657;BME280;14279;50.010;8.260;2023-05-02T10:43:49;101118.38;;;17.49;48.13
26657;BME280;14279;50.010;8.260;2023-05-02T10:46:34;101108.19;;;17.01;48.79
26657;BME280;14279;50.010;8.260;2023-05-02T10:49:01;101106.94;;;17.35;48.43
26657;BME280;14279;50.010;8.260;2023-05-02T10:51:27;101097.69;;;17.01;49.44
26657;BME280;14279;50.010;8.260;2023-05-02T10:54:21;101106.50;;;17.28;48.32
26657;BME280;14279;50.010;8.260;2023-05-02T11:01:58;101083.97;;;17.52;47.53
26657;BME280;14279;50.010;8.260;2023-05-02T11:04:23;101084.19;;;17.34;47.52
26657;BME280;14279;50.010;8.260;2023-05-02T11:11:49;101071.59;;;18.60;46.39
26657;BME280;14279;50.010;8.260;2023-05-02T11:19:23;101074.03;;;18.63;44.30
26657;BME280;14279;50.010;8.260;2023-05-02T11:21:49;101072.97;;;18.79;44.27
26657;BME280;14279;50.010;8.260;2023-05-02T11:24:38;101075.06;;;18.61;44.99
26657;BME280;14279;50.010;8.260;2023-05-02T11:29:58;101075.59;;;18.27;45.55
26657;BME280;14279;50.010;8.260;2023-05-02T11:35:59;101061.00;;;17.68;47.36
26657;BME280;14279;50.010;8.260;2023-05-02T11:38:36;101061.72;;;17.70;46.47
26657;BME280;14279;50.010;8.260;2023-05-02T11:41:01;101055.94;;;17.51;46.75
26657;BME280;14279;50.010;8.260;2023-05-02T11:43:28;101059.50;;;17.64;47.18
26657;BME280;14279;50.010;8.260;2023-05-02T11:45:54;101064.69;;;18.06;46.97
26657;BME280;14279;50.010;8.260;2023-05-02T11:48:22;101066.34;;;17.67;48.52
26657;BME280;14279;50.010;8.260;2023-05-02T11:50:50;101077.56;;;18.11;48.05
26657;BME280;14279;50.010;8.260;2023-05-02T11:53:20;101088.47;;;17.64;47.19
26657;BME280;14279;50.010;8.260;2023-05-02T11:55:57;101101.56;;;16.64;50.03
26657;BME280;14279;50.010;8.260;2023-05-02T11:58:27;101091.88;;;16.05;51.00
26657;BME280;14279;50.010;8.260;2023-05-02T12:01:15;101092.66;;;15.75;52.57
26657;BME280;14279;50.010;8.260;2023-05-02T12:03:41;101102.97;;;15.14;55.79
26657;BME280;14279;50.010;8.260;2023-05-02T12:08:36;101106.28;;;15.18;55.92
26657;BME280;14279;50.010;8.260;2023-05-02T12:11:01;101119.19;;;15.05;54.49
26657;BME280;14279;50.010;8.260;2023-05-02T12:13:27;101100.19;;;15.33;54.40
26657;BME280;14279;50.010;8.260;2023-05-02T12:15:53;101109.09;;;15.47;52.00
26657;BME280;14279;50.010;8.260;2023-05-02T12:18:20;101116.59;;;15.85;52.06
26657;BME280;14279;50.010;8.260;2023-05-02T12:20:49;101108.31;;;15.77;49.20
26657;BME280;14279;50.010;8.260;2023-05-02T12:23:14;101105.13;;;15.72;47.56
26657;BME280;14279;50.010;8.260;2023-05-02T12:25:40;101104.69;;;15.96;47.57
26657;BME280;14279;50.010;8.260;2023-05-02T12:28:06;101107.00;;;16.16;46.33
26657;BME280;14279;50.010;8.260;2023-05-02T12:30:32;101112.81;;;16.52;45.71
26657;BME280;14279;50.010;8.260;2023-05-02T12:33:00;101109.53;;;16.48;44.97
26657;BME280;14279;50.010;8.260;2023-05-02T12:35:27;101097.13;;;16.95;44.36
26657;BME280;14279;50.010;8.260;2023-05-02T12:37:53;101109.31;;;16.96;45.02
26657;BME280;14279;50.010;8.260;2023-05-02T12:40:19;101108.63;;;16.78;45.55
26657;BME280;14279;50.010;8.260;2023-05-02T12:43:01;101114.09;;;17.04;44.67
26657;BME280;14279;50.010;8.260;2023-05-02T12:45:33;101110.13;;;17.40;44.48
26657;BME280;14279;50.010;8.260;2023-05-02T12:48:02;101113.78;;;17.38;44.83
26657;BME280;14279;50.010;8.260;2023-05-02T12:50:41;101110.31;;;17.79;44.07
26657;BME280;14279;50.010;8.260;2023-05-02T12:53:06;101117.16;;;17.82;44.18
26657;BME280;14279;50.010;8.260;2023-05-02T12:55:32;101121.81;;;18.06;44.96
26657;BME280;14279;50.010;8.260;2023-05-02T12:58:00;101119.09;;;18.20;46.06
26657;BME280;14279;50.010;8.260;2023-05-02T13:00:26;101117.00;;;17.98;47.28
26657;BME280;14279;50.010;8.260;2023-05-02T13:02:51;101113.69;;;17.81;49.75
26657;BME280;14279;50.010;8.260;2023-05-02T13:05:17;101127.34;;;17.73;48.57
26657;BME280;14279;50.010;8.260;2023-05-02T13:07:43;101123.28;;;17.40;46.36
26657;BME280;14279;50.010;8.260;2023-05-02T13:10:09;101133.97;;;17.52;45.70
26657;BME280;14279;50.010;8.260;2023-05-02T13:12:35;101139.66;;;17.31;46.71
26657;BME280;14279;50.010;8.260;2023-05-02T13:15:03;101127.59;;;17.56;46.82
26657;BME280;14279;50.010;8.260;2023-05-02T13:17:28;101148.25;;;18.04;46.83
26657;BME280;14279;50.010;8.260;2023-05-02T13:19:54;101126.69;;;17.28;48.41
26657;BME280;14279;50.010;8.260;2023-05-02T13:22:19;101126.19;;;17.36;48.81
26657;BME280;14279;50.010;8.260;2023-05-02T13:24:45;101126.44;;;17.04;49.53
26657;BME280;14279;50.010;8.260;2023-05-02T13:27:10;101104.44;;;17.61;48.16